Time;durP1;ratioP1;P1;durP2;ratioP2;P2;SDS_P1;SDS_P2;PMS_P1;PMS_P2;Temp;Humidity;BMP_temperature;BMP_pressure;BME280_temperature;BME280_humidity;BME280_pressure;Samples;Min_cycle;Max_cycle;Signal;HPM_P1;HPM_P2
2023/04/14 00:00:57;;;;;;;35.92;23.95;;;435.40;1664.00;;;;;;5038948;28;20426;-58
2023/04/14 00:03:23;;;;;;;29.95;17.83;;;435.30;1664.00;;;;;;5047156;28;20497;-59
2023/04/14 00:05:48;;;;;;;24.02;14.77;;;435.20;1689.60;;;;;;5043052;28;20116;-58
2023/04/14 00:08:14;;;;;;;16.77;9.52;;;435.30;1664.00;;;;;;5040019;28;20028;-58
2023/04/14 00:10:40;;;;;;;28.02;12.20;;;435.30;1664.00;;;;;;5047059;28;20924;-58
2023/04/14 00:13:06;;;;;;;22.27;13.80;;;435.30;1664.00;;;;;;5038578;28;20032;-58
2023/04/14 00:15:32;;;;;;;26.10;14.07;;;435.30;1664.00;;;;;;5049192;28;20076;-59
2023/04/14 00:17:57;;;;;;;31.63;17.67;;;435.30;1689.60;;;;;;5035757;28;20782;-58
2023/04/14 00:20:23;;;;;;;34.83;21.33;;;435.20;1689.60;;;;;;5048708;28;20055;-59
2023/04/14 00:22:49;;;;;;;20.30;12.70;;;435.20;1689.60;;;;;;5035881;28;20021;-59
2023/04/14 00:25:14;;;;;;;18.38;9.73;;;435.30;1664.00;;;;;;5050205;28;20044;-59
2023/04/14 00:27:40;;;;;;;21.08;13.13;;;435.30;1689.60;;;;;;5050008;28;20021;-59
2023/04/14 00:30:06;;;;;;;14.45;10.52;;;435.20;1689.60;;;;;;5050131;28;20068;-58
2023/04/14 00:32:32;;;;;;;31.52;19.58;;;435.30;1664.00;;;;;;5046734;28;20544;-58
2023/04/14 00:34:59;;;;;;;30.85;18.95;;;435.30;1664.00;;;;;;5030273;28;20033;-58
2023/04/14 00:37:25;;;;;;;23.15;12.30;;;435.20;1689.60;;;;;;5047739;28;20025;-59
2023/04/14 00:39:50;;;;;;;14.32;7.25;;;410.50;1715.20;;;;;;5049815;28;20403;-60
2023/04/14 00:42:16;;;;;;;22.13;15.52;;;410.50;1715.20;;;;;;5045448;28;20096;-58
2023/04/14 00:44:42;;;;;;;30.40;15.73;;;410.30;1740.80;;;;;;5029866;28;20052;-57
2023/04/14 00:47:09;;;;;;;24.77;14.73;;;410.20;1740.80;;;;;;5029657;28;20368;-60
2023/04/14 00:49:36;;;;;;;24.17;9.10;;;410.20;1740.80;;;;;;5029680;28;20041;-58
2023/04/14 00:52:03;;;;;;;13.93;7.72;;;410.20;1740.80;;;;;;5029626;28;20030;-59
2023/04/14 00:54:31;;;;;;;30.83;14.63;;;410.30;1715.20;;;;;;5030388;28;20029;-61
2023/04/14 00:56:57;;;;;;;59.85;35.33;;;410.20;1740.80;;;;;;5029817;28;20071;-56
2023/04/14 00:59:24;;;;;;;15.50;7.93;;;410.20;1740.80;;;;;;5029483;28;20037;-59
2023/04/14 01:01:50;;;;;;;21.33;8.55;;;410.10;1740.80;;;;;;5029394;28;20022;-57
2023/04/14 01:04:17;;;;;;;14.57;6.78;;;410.00;1766.40;;;;;;5029850;28;20157;-56
2023/04/14 01:06:42;;;;;;;27.33;15.15;;;410.00;1766.40;;;;;;5029773;28;20064;-57
2023/04/14 01:09:08;;;;;;;20.35;11.23;;;410.00;1740.80;;;;;;5029658;28;20021;-57
2023/04/14 01:11:54;;;;;;;63.00;33.63;;;409.90;1766.40;;;;;;5037899;28;20029;-57
2023/04/14 01:14:41;;;;;;;19.05;10.60;;;410.00;1740.80;;;;;;5048585;28;20021;-56
2023/04/14 01:17:38;;;;;;;61.38;35.97;;;410.00;1715.20;;;;;;5049308;28;20025;-56
2023/04/14 01:20:10;;;;;;;14.95;9.20;;;410.00;1715.20;;;;;;5036720;28;20048;-59
2023/04/14 01:22:45;;;;;;;61.63;30.05;;;435.50;1689.60;;;;;;5029330;28;20025;-57
2023/04/14 01:25:39;;;;;;;121.22;69.25;;;410.30;1689.60;;;;;;5029279;28;20104;-58
2023/04/14 01:28:32;;;;;;;59.20;32.67;;;410.30;1715.20;;;;;;5029169;28;20112;-61
2023/04/14 01:31:28;;;;;;;55.45;38.88;;;410.20;1740.80;;;;;;5029014;28;20021;-58
2023/04/14 01:34:21;;;;;;;52.20;37.10;;;410.20;1740.80;;;;;;5016718;28;20076;-57
2023/04/14 01:37:01;;;;;;;50.15;39.72;;;410.10;1740.80;;;;;;5041664;28;20036;-58
2023/04/14 01:39:33;;;;;;;22.35;18.05;;;410.00;1740.80;;;;;;5049001;28;20052;-58
2023/04/14 01:41:59;;;;;;;112.88;83.15;;;410.10;1740.80;;;;;;5045193;28;20045;-58
2023/04/14 01:44:26;;;;;;;38.38;21.17;;;410.20;1740.80;;;;;;5028976;28;20488;-59
2023/04/14 01:46:56;;;;;;;35.00;18.40;;;410.20;1715.20;;;;;;5031962;28;20052;-58
2023/04/14 01:49:23;;;;;;;23.05;13.13;;;410.50;1664.00;;;;;;5048840;28;20128;-59
2023/04/14 01:51:50;;;;;;;17.20;8.65;;;435.20;1638.40;;;;;;5049110;28;20048;-59
2023/04/14 01:54:18;;;;;;;18.55;7.75;;;410.50;1689.60;;;;;;5041018;28;20079;-58
2023/04/14 01:56:45;;;;;;;14.98;6.93;;;410.50;1715.20;;;;;;5042416;28;20032;-58
2023/04/14 01:59:12;;;;;;;13.68;7.45;;;410.30;1715.20;;;;;;5048286;28;20029;-59
2023/04/14 02:01:40;;;;;;;11.20;6.45;;;410.30;1715.20;;;;;;5035665;28;20036;-58
2023/04/14 02:04:07;;;;;;;14.52;6.38;;;410.30;1715.20;;;;;;5048379;28;20029;-58
2023/04/14 02:06:34;;;;;;;14.27;6.60;;;410.30;1715.20;;;;;;5048766;28;20034;-58
2023/04/14 02:09:02;;;;;;;14.82;6.60;;;410.30;1715.20;;;;;;5048911;28;20534;-58
2023/04/14 02:11:30;;;;;;;18.10;7.70;;;410.30;1715.20;;;;;;5048518;28;20487;-57
2023/04/14 02:13:56;;;;;;;15.75;6.03;;;410.30;1689.60;;;;;;5048519;28;20020;-58
2023/04/14 02:16:23;;;;;;;15.90;7.65;;;410.30;1715.20;;;;;;5048131;28;20067;-58
2023/04/14 02:18:49;;;;;;;13.45;6.95;;;410.20;1715.20;;;;;;5048821;28;20070;-58
2023/04/14 02:21:17;;;;;;;18.80;7.32;;;410.20;1740.80;;;;;;5048426;28;20021;-57
2023/04/14 02:23:43;;;;;;;13.43;5.85;;;410.00;1766.40;;;;;;5039309;28;20061;-58
2023/04/14 02:26:15;;;;;;;19.83;7.55;;;410.00;1766.40;;;;;;5047328;28;20448;-58
2023/04/14 02:28:48;;;;;;;23.03;8.70;;;410.00;1766.40;;;;;;5052129;28;20398;-59
2023/04/14 02:31:20;;;;;;;13.60;8.52;;;410.00;1740.80;;;;;;5051860;28;20025;-58
2023/04/14 02:33:48;;;;;;;19.98;7.88;;;410.00;1740.80;;;;;;5039881;28;20459;-58
2023/04/14 02:36:19;;;;;;;16.65;8.43;;;410.10;1766.40;;;;;;5050874;28;20037;-58
2023/04/14 02:38:50;;;;;;;15.38;10.40;;;410.10;1740.80;;;;;;5051617;28;20379;-58
2023/04/14 02:41:24;;;;;;;15.90;8.85;;;410.00;1740.80;;;;;;5052051;28;20067;-58
2023/04/14 02:43:55;;;;;;;19.58;10.55;;;410.00;1766.40;;;;;;5052016;28;20043;-57
2023/04/14 02:46:24;;;;;;;17.40;9.15;;;410.00;1766.40;;;;;;5051991;28;20039;-59
2023/04/14 02:48:52;;;;;;;21.23;8.98;;;410.00;1766.40;;;;;;5051969;28;20013;-58
2023/04/14 02:51:19;;;;;;;20.88;8.95;;;410.00;1766.40;;;;;;5051522;28;20033;-58
2023/04/14 02:53:45;;;;;;;11.82;7.30;;;410.10;1766.40;;;;;;5051578;28;20021;-59
2023/04/14 02:56:11;;;;;;;17.05;7.22;;;410.20;1766.40;;;;;;5051802;28;20475;-59
2023/04/14 02:58:38;;;;;;;12.73;5.22;;;410.20;1740.80;;;;;;5051710;28;20528;-60
2023/04/14 03:01:04;;;;;;;11.65;6.00;;;410.20;1740.80;;;;;;5051550;28;20380;-59
2023/04/14 03:03:30;;;;;;;69.95;39.63;;;410.20;1740.80;;;;;;5051398;28;20055;-59
2023/04/14 03:05:57;;;;;;;58.13;31.33;;;410.30;1689.60;;;;;;5051897;28;20033;-58
2023/04/14 03:08:23;;;;;;;41.50;23.23;;;410.50;1689.60;;;;;;5051634;28;20099;-59
2023/04/14 03:10:51;;;;;;;20.98;10.77;;;410.50;1689.60;;;;;;5051817;28;20055;-59
2023/04/14 03:13:20;;;;;;;12.88;6.57;;;410.40;1715.20;;;;;;5051899;28;20025;-59
2023/04/14 03:15:47;;;;;;;16.17;6.95;;;410.40;1715.20;;;;;;5051527;28;20482;-58
2023/04/14 03:18:14;;;;;;;22.85;11.50;;;410.30;1715.20;;;;;;5051055;28;20029;-59
2023/04/14 03:20:42;;;;;;;24.42;11.68;;;410.30;1715.20;;;;;;5051852;28;20035;-58
2023/04/14 03:23:11;;;;;;;19.25;8.07;;;410.40;1715.20;;;;;;5051512;28;20360;-58
2023/04/14 03:25:38;;;;;;;17.17;9.57;;;410.30;1715.20;;;;;;5051442;28;20020;-58
2023/04/14 03:28:09;;;;;;;17.23;11.35;;;410.30;1715.20;;;;;;5051464;28;20074;-58
2023/04/14 03:30:38;;;;;;;15.98;10.35;;;410.30;1740.80;;;;;;5050705;28;20036;-58
2023/04/14 03:33:08;;;;;;;14.50;9.35;;;410.20;1766.40;;;;;;5050846;28;20487;-58
2023/04/14 03:35:36;;;;;;;17.70;8.95;;;410.20;1766.40;;;;;;5037912;28;20036;-58
2023/04/14 03:38:07;;;;;;;17.10;8.60;;;410.20;1792.00;;;;;;5050466;28;20025;-59
2023/04/14 03:40:37;;;;;;;29.65;14.95;;;410.20;1792.00;;;;;;5050393;28;20051;-58
2023/04/14 03:43:04;;;;;;;36.85;17.80;;;410.10;1792.00;;;;;;5040811;28;20034;-58
2023/04/14 03:45:31;;;;;;;24.92;15.43;;;410.00;1817.60;;;;;;5048336;28;20028;-58
2023/04/14 03:48:03;;;;;;;24.25;12.43;;;410.00;1817.60;;;;;;5050441;28;20028;-57
2023/04/14 03:50:35;;;;;;;27.10;15.30;;;410.00;1792.00;;;;;;5050963;28;20033;-58
2023/04/14 03:53:04;;;;;;;32.55;17.92;;;410.00;1817.60;;;;;;5050971;28;20530;-58
2023/04/14 03:55:32;;;;;;;24.80;16.23;;;410.00;1817.60;;;;;;5050719;28;20539;-58
2023/04/14 03:58:00;;;;;;;17.48;9.82;;;410.00;1817.60;;;;;;5050786;28;20025;-58
2023/04/14 04:00:26;;;;;;;19.30;13.98;;;410.00;1817.60;;;;;;5050609;28;20475;-58
2023/04/14 04:02:53;;;;;;;17.20;9.25;;;410.00;1817.60;;;;;;5050350;28;20045;-59
2023/04/14 04:05:20;;;;;;;10.95;6.88;;;410.00;1843.20;;;;;;5050417;28;20039;-58
2023/04/14 04:07:49;;;;;;;13.95;6.90;;;410.00;1843.20;;;;;;5050600;28;20100;-58
2023/04/14 04:10:16;;;;;;;12.98;7.07;;;410.00;1843.20;;;;;;5043219;28;20037;-58
2023/04/14 04:12:43;;;;;;;20.75;9.10;;;410.00;1843.20;;;;;;5044297;28;20036;-59
2023/04/14 04:15:10;;;;;;;25.23;15.38;;;410.00;1843.20;;;;;;5050778;28;20031;-58
2023/04/14 04:17:37;;;;;;;32.33;19.63;;;410.00;1843.20;;;;;;5050707;28;20076;-58
2023/04/14 04:20:13;;;;;;;33.13;21.63;;;410.00;1843.20;;;;;;5050135;28;20025;-59
2023/04/14 04:22:40;;;;;;;28.17;19.33;;;410.00;1843.20;;;;;;5050383;28;20020;-58
2023/04/14 04:25:10;;;;;;;19.92;11.35;;;410.00;1843.20;;;;;;5050477;28;20068;-58
2023/04/14 04:27:36;;;;;;;37.10;23.50;;;410.00;1843.20;;;;;;5049684;28;20118;-58
2023/04/14 04:30:06;;;;;;;34.80;12.25;;;410.00;1868.80;;;;;;5040260;28;20479;-58
2023/04/14 04:32:32;;;;;;;24.55;8.45;;;410.00;1868.80;;;;;;5046733;28;20582;-61
2023/04/14 04:34:58;;;;;;;11.50;6.55;;;410.00;1868.80;;;;;;5050369;28;20051;-61
2023/04/14 04:37:27;;;;;;;28.05;13.13;;;410.00;1868.80;;;;;;5049839;28;20028;-58
2023/04/14 04:39:56;;;;;;;30.42;23.08;;;409.80;1843.20;;;;;;5049502;28;20040;-57
2023/04/14 04:42:22;;;;;;;37.30;25.75;;;410.00;1843.20;;;;;;5035518;28;20053;-58
2023/04/14 04:44:48;;;;;;;40.40;36.00;;;410.00;1868.80;;;;;;5049895;28;20079;-57
2023/04/14 04:47:14;;;;;;;14.23;7.22;;;409.90;1894.40;;;;;;5049999;28;20025;-58
2023/04/14 04:49:40;;;;;;;8.25;5.90;;;409.70;1945.60;;;;;;5048921;28;20108;-59
2023/04/14 04:52:05;;;;;;;11.95;5.57;;;384.70;1996.80;;;;;;5049549;28;20100;-58
2023/04/14 04:54:31;;;;;;;15.18;5.90;;;384.60;1971.20;;;;;;5049639;28;20109;-59
2023/04/14 04:56:57;;;;;;;12.68;5.82;;;384.40;1945.60;;;;;;5050071;28;20029;-59
2023/04/14 04:59:23;;;;;;;15.07;5.45;;;384.40;1945.60;;;;;;5049267;28;20032;-58
2023/04/14 05:01:49;;;;;;;13.23;6.28;;;384.50;1945.60;;;;;;5049588;28;20032;-58
2023/04/14 05:04:16;;;;;;;13.98;6.45;;;384.40;1945.60;;;;;;5049528;28;20353;-59
2023/04/14 05:06:41;;;;;;;16.40;6.10;;;384.50;1945.60;;;;;;5049065;28;20031;-59
2023/04/14 05:09:07;;;;;;;15.43;6.28;;;384.50;1971.20;;;;;;5049330;28;20021;-58
2023/04/14 05:11:34;;;;;;;15.70;6.05;;;384.60;1971.20;;;;;;5048863;28;20498;-58
2023/04/14 05:14:00;;;;;;;18.42;7.38;;;384.70;1945.60;;;;;;5046104;28;20030;-60
2023/04/14 05:16:27;;;;;;;12.57;6.65;;;384.70;1971.20;;;;;;5038947;28;20032;-58
2023/04/14 05:18:52;;;;;;;15.63;6.93;;;384.80;1971.20;;;;;;5049236;28;20394;-59
2023/04/14 05:21:18;;;;;;;24.00;10.05;;;384.80;1971.20;;;;;;5049697;28;20025;-58
2023/04/14 05:23:45;;;;;;;12.63;6.60;;;384.90;1996.80;;;;;;5048787;28;20749;-58
2023/04/14 05:26:12;;;;;;;11.32;8.05;;;384.80;1996.80;;;;;;5049296;28;20095;-58
2023/04/14 05:28:40;;;;;;;15.55;6.32;;;384.70;2048.00;;;;;;5048774;28;20067;-58
2023/04/14 05:31:06;;;;;;;10.15;6.88;;;384.80;2099.20;;;;;;5049256;28;20078;-57
2023/04/14 05:33:33;;;;;;;9.18;5.60;;;384.60;2124.80;;;;;;5048649;28;20029;-58
2023/04/14 05:35:59;;;;;;;17.75;5.70;;;384.50;2201.60;;;;;;5049297;28;20027;-58
2023/04/14 05:38:25;;;;;;;329.02;205.15;;;384.40;2278.40;;;;;;5048797;28;20051;-58
2023/04/14 05:40:52;;;;;;;86.78;57.75;;;384.40;2329.60;;;;;;5048224;28;20148;-59
2023/04/14 05:43:18;;;;;;;14.02;9.48;;;384.30;2329.60;;;;;;5048824;28;20025;-59
2023/04/14 05:45:46;;;;;;;36.95;19.48;;;384.20;2329.60;;;;;;5048376;28;20356;-59
2023/04/14 05:48:13;;;;;;;312.30;184.35;;;384.10;2329.60;;;;;;5048642;28;20654;-59
2023/04/14 05:50:39;;;;;;;33.38;19.77;;;384.00;2329.60;;;;;;5048992;28;20029;-58
2023/04/14 05:53:04;;;;;;;17.02;11.13;;;359.30;2329.60;;;;;;5048795;28;20459;-58
2023/04/14 05:55:31;;;;;;;22.20;13.77;;;359.20;2329.60;;;;;;5049092;28;20028;-59
2023/04/14 05:57:57;;;;;;;20.40;13.30;;;359.30;2329.60;;;;;;5048847;28;20383;-59
2023/04/14 06:00:24;;;;;;;14.02;9.48;;;359.20;2329.60;;;;;;5049595;28;20029;-59
2023/04/14 06:02:50;;;;;;;16.20;10.35;;;359.00;2329.60;;;;;;5044326;28;20025;-59
2023/04/14 06:05:16;;;;;;;22.63;16.65;;;358.90;2329.60;;;;;;5047006;28;20036;-59
2023/04/14 06:07:42;;;;;;;14.98;7.78;;;358.80;2329.60;;;;;;5052648;28;20521;-58
2023/04/14 06:10:09;;;;;;;17.42;9.93;;;358.70;2329.60;;;;;;5039182;28;20049;-58
2023/04/14 06:12:36;;;;;;;16.83;14.25;;;358.60;2329.60;;;;;;5052602;28;20048;-58
2023/04/14 06:15:04;;;;;;;13.20;6.85;;;358.60;2329.60;;;;;;5052370;28;20029;-59
2023/04/14 06:17:29;;;;;;;16.10;8.35;;;358.40;2329.60;;;;;;5044760;28;20025;-58
2023/04/14 06:19:56;;;;;;;44.50;32.58;;;333.70;2329.60;;;;;;5047743;28;20498;-57
2023/04/14 06:22:27;;;;;;;35.85;25.42;;;333.60;2329.60;;;;;;5052443;28;20056;-58
2023/04/14 06:24:56;;;;;;;11.23;7.18;;;333.60;2329.60;;;;;;5035931;28;20030;-58
2023/04/14 06:27:23;;;;;;;6.40;4.30;;;333.40;2329.60;;;;;;5045598;28;20393;-58
2023/04/14 06:29:50;;;;;;;12.18;8.15;;;333.20;2329.60;;;;;;5043942;28;20037;-57
2023/04/14 06:32:19;;;;;;;5.85;2.97;;;333.10;2329.60;;;;;;5051739;28;20653;-57
2023/04/14 06:34:46;;;;;;;7.20;4.13;;;332.90;2329.60;;;;;;5052338;28;20037;-57
2023/04/14 06:37:12;;;;;;;4.13;2.28;;;332.90;2329.60;;;;;;5052018;28;20029;-57
2023/04/14 06:39:38;;;;;;;5.40;2.63;;;332.90;2329.60;;;;;;5052322;28;20032;-57
2023/04/14 06:42:04;;;;;;;7.43;5.93;;;332.90;2329.60;;;;;;5051682;28;20375;-57
2023/04/14 06:44:29;;;;;;;3.65;2.70;;;333.00;2329.60;;;;;;5052191;28;20104;-56
2023/04/14 06:46:55;;;;;;;15.43;13.75;;;333.10;2329.60;;;;;;5049807;28;20473;-57
2023/04/14 06:49:22;;;;;;;14.35;12.85;;;333.20;2329.60;;;;;;5040954;28;20624;-57
2023/04/14 06:51:48;;;;;;;16.73;11.95;;;333.30;2329.60;;;;;;5046625;28;20041;-57
2023/04/14 06:54:14;;;;;;;44.47;39.13;;;333.40;2329.60;;;;;;5032806;28;20107;-60
2023/04/14 06:56:40;;;;;;;41.58;37.20;;;333.60;2329.60;;;;;;5050904;28;20032;-58
2023/04/14 06:59:05;;;;;;;20.65;18.55;;;333.40;2329.60;;;;;;5050818;28;20107;-57
2023/04/14 07:01:31;;;;;;;22.02;19.73;;;333.20;2329.60;;;;;;5051393;28;20120;-59
2023/04/14 07:03:57;;;;;;;9.70;8.85;;;333.30;2329.60;;;;;;5048283;28;20047;-58
2023/04/14 07:06:23;;;;;;;11.68;10.60;;;333.30;2329.60;;;;;;5050969;28;20387;-58
2023/04/14 07:08:49;;;;;;;6.07;4.53;;;333.50;2329.60;;;;;;5051478;28;20029;-58
2023/04/14 07:11:15;;;;;;;98.72;57.03;;;333.50;2329.60;;;;;;5050955;28;20387;-57
2023/04/14 07:13:41;;;;;;;34.60;19.33;;;333.70;2329.60;;;;;;5037515;28;20017;-58
2023/04/14 07:16:07;;;;;;;17.40;10.75;;;333.70;2329.60;;;;;;5046222;28;20717;-59
2023/04/14 07:18:33;;;;;;;20.17;14.07;;;333.70;2329.60;;;;;;5042984;28;20024;-59
2023/04/14 07:20:59;;;;;;;12.82;9.65;;;358.40;2329.60;;;;;;5051355;28;20077;-59
2023/04/14 07:23:26;;;;;;;14.50;10.27;;;358.40;2329.60;;;;;;5051171;28;20375;-59
2023/04/14 07:25:53;;;;;;;15.63;11.65;;;358.50;2329.60;;;;;;5051142;28;20021;-59
2023/04/14 07:28:20;;;;;;;30.80;21.08;;;358.50;2329.60;;;;;;5051657;28;20106;-58
2023/04/14 07:30:47;;;;;;;14.55;11.18;;;358.50;2329.60;;;;;;5046241;28;20120;-58
2023/04/14 07:33:17;;;;;;;14.07;9.32;;;358.50;2329.60;;;;;;5042231;28;20052;-58
2023/04/14 07:35:46;;;;;;;17.27;14.82;;;358.50;2329.60;;;;;;5051127;28;20052;-59
2023/04/14 07:38:11;;;;;;;25.92;18.50;;;358.60;2329.60;;;;;;5051477;28;20024;-59
2023/04/14 07:40:37;;;;;;;16.63;13.80;;;358.70;2329.60;;;;;;5050963;28;20058;-61
2023/04/14 07:43:03;;;;;;;13.95;10.38;;;358.80;2329.60;;;;;;5050596;28;20105;-59
2023/04/14 07:45:29;;;;;;;8.93;6.88;;;358.70;2329.60;;;;;;5048651;28;20116;-59
2023/04/14 07:47:56;;;;;;;30.92;22.90;;;358.60;2329.60;;;;;;5033887;28;20055;-59
2023/04/14 07:50:22;;;;;;;6.60;5.20;;;358.70;2329.60;;;;;;5031763;28;20607;-60
2023/04/14 07:52:47;;;;;;;17.63;12.77;;;358.40;2329.60;;;;;;5049465;28;20116;-60
2023/04/14 07:55:13;;;;;;;6.07;4.43;;;358.50;2329.60;;;;;;5049135;28;20023;-59
2023/04/14 07:57:39;;;;;;;16.20;13.20;;;358.50;2329.60;;;;;;5045859;28;20537;-59
2023/04/14 08:00:08;;;;;;;20.25;17.17;;;358.50;2329.60;;;;;;5026385;28;20049;-59
2023/04/14 08:02:35;;;;;;;21.63;18.08;;;358.60;2329.60;;;;;;5028527;28;20030;-60
2023/04/14 08:05:01;;;;;;;18.73;15.32;;;358.60;2329.60;;;;;;5045601;28;20047;-60
2023/04/14 08:07:30;;;;;;;16.33;14.60;;;358.80;2329.60;;;;;;5042297;28;20022;-59
2023/04/14 08:09:55;;;;;;;12.57;11.38;;;359.00;2329.60;;;;;;5047500;28;20068;-60
2023/04/14 08:12:23;;;;;;;13.82;12.43;;;359.00;2329.60;;;;;;5028434;28;20049;-59
2023/04/14 08:14:48;;;;;;;29.20;26.23;;;359.00;2329.60;;;;;;5028448;28;20033;-59
2023/04/14 08:17:14;;;;;;;33.30;28.00;;;358.80;2329.60;;;;;;5041872;28;20083;-57
2023/04/14 08:19:41;;;;;;;35.38;23.45;;;358.80;2329.60;;;;;;5044395;28;20071;-57
2023/04/14 08:22:06;;;;;;;56.72;42.70;;;358.60;2329.60;;;;;;5035849;28;20480;-57
2023/04/14 08:24:32;;;;;;;64.30;49.63;;;358.40;2329.60;;;;;;5042355;28;20076;-57
2023/04/14 08:26:59;;;;;;;59.38;43.17;;;333.50;2329.60;;;;;;5033948;28;20028;-58
2023/04/14 08:29:25;;;;;;;56.28;41.55;;;333.50;2329.60;;;;;;5027648;28;20116;-58
2023/04/14 08:31:52;;;;;;;54.65;38.30;;;333.70;2329.60;;;;;;5028805;28;20026;-60
2023/04/14 08:34:17;;;;;;;74.15;55.13;;;333.60;2329.60;;;;;;5038715;28;20079;-60
2023/04/14 08:36:43;;;;;;;34.80;27.65;;;333.70;2329.60;;;;;;5047952;28;20025;-64
2023/04/14 08:39:09;;;;;;;34.95;28.50;;;333.40;2329.60;;;;;;5048195;28;20028;-65
2023/04/14 08:41:38;;;;;;;37.97;27.83;;;333.50;2329.60;;;;;;5038014;28;20049;-66
2023/04/14 08:44:04;;;;;;;48.33;38.00;;;333.70;2329.60;;;;;;5033640;28;20032;-61
2023/04/14 08:46:30;;;;;;;45.67;36.30;;;333.60;2329.60;;;;;;5048694;28;20025;-63
2023/04/14 08:49:04;;;;;;;61.80;45.28;;;358.40;2329.60;;;;;;5032299;28;20644;-68
2023/04/14 08:51:33;;;;;;;53.88;39.85;;;358.50;2329.60;;;;;;5027872;28;20388;-69
2023/04/14 08:54:01;;;;;;;39.25;27.48;;;333.60;2329.60;;;;;;5048213;28;20060;-66
2023/04/14 08:56:32;;;;;;;45.15;33.03;;;333.40;2329.60;;;;;;5047994;28;20024;-67
2023/04/14 08:58:59;;;;;;;62.55;47.60;;;333.40;2329.60;;;;;;5022697;28;20029;-65
2023/04/14 09:01:31;;;;;;;40.75;30.38;;;333.60;2329.60;;;;;;5027577;28;20075;-64
2023/04/14 09:03:57;;;;;;;35.40;25.15;;;333.30;2329.60;;;;;;5036807;28;20036;-61
2023/04/14 09:06:23;;;;;;;26.77;21.80;;;333.20;2329.60;;;;;;5032926;28;20438;-65
2023/04/14 09:08:49;;;;;;;45.88;33.25;;;308.10;2304.00;;;;;;5043547;28;20111;-62
2023/04/14 09:11:15;;;;;;;62.50;44.00;;;332.90;2329.60;;;;;;5037929;28;20143;-65
2023/04/14 09:13:43;;;;;;;50.95;35.20;;;333.20;2329.60;;;;;;5038792;28;20530;-63
2023/04/14 09:16:10;;;;;;;83.40;55.97;;;333.00;2329.60;;;;;;5020643;28;20029;-62
2023/04/14 09:18:36;;;;;;;34.80;26.17;;;333.40;2329.60;;;;;;5041981;28;20394;-61
2023/04/14 09:21:02;;;;;;;50.85;33.17;;;333.70;2329.60;;;;;;5039627;28;20041;-62
2023/04/14 09:23:29;;;;;;;76.85;42.35;;;358.40;2329.60;;;;;;5019457;28;20040;-61
2023/04/14 09:25:54;;;;;;;35.90;26.73;;;333.70;2329.60;;;;;;5034052;28;20478;-61
2023/04/14 09:28:20;;;;;;;34.13;22.35;;;333.30;2329.60;;;;;;5040082;28;20036;-61
2023/04/14 09:30:46;;;;;;;26.52;20.30;;;333.40;2329.60;;;;;;5027950;28;20538;-61
2023/04/14 09:33:20;;;;;;;28.73;22.27;;;333.30;2329.60;;;;;;5018412;28;20037;-63
2023/04/14 09:35:50;;;;;;;61.80;43.92;;;358.40;2329.60;;;;;;5021427;28;20111;-62
2023/04/14 09:38:37;;;;;;;29.88;22.73;;;358.80;2329.60;;;;;;5022772;28;20029;-62
2023/04/14 09:41:05;;;;;;;24.75;17.60;;;359.00;2329.60;;;;;;5018269;28;20060;-61
2023/04/14 09:43:31;;;;;;;17.90;11.65;;;359.00;2329.60;;;;;;5016892;28;20045;-62
2023/04/14 09:46:03;;;;;;;30.45;19.42;;;359.20;2329.60;;;;;;5016975;28;20116;-65
2023/04/14 09:48:29;;;;;;;27.30;15.50;;;359.30;2329.60;;;;;;5022869;28;20424;-62
2023/04/14 09:51:05;;;;;;;22.05;15.77;;;359.10;2329.60;;;;;;5029353;28;20137;-62
2023/04/14 09:53:33;;;;;;;15.57;9.85;;;384.10;2329.60;;;;;;5013932;28;20065;-63
2023/04/14 09:56:02;;;;;;;27.15;14.02;;;384.40;2329.60;;;;;;5036871;28;20025;-65
2023/04/14 09:58:30;;;;;;;15.95;9.70;;;384.10;2329.60;;;;;;5028598;28;20044;-63
2023/04/14 10:00:56;;;;;;;15.00;9.30;;;384.20;2329.60;;;;;;5021836;28;20029;-62
2023/04/14 10:03:39;;;;;;;10.07;7.78;;;384.40;2329.60;;;;;;5031424;28;20435;-63
2023/04/14 10:06:23;;;;;;;11.25;6.43;;;384.10;2329.60;;;;;;5029795;28;20029;-61
2023/04/14 10:08:50;;;;;;;5.72;3.97;;;384.40;2329.60;;;;;;5021451;28;20072;-62
2023/04/14 10:11:18;;;;;;;19.80;13.23;;;384.60;2329.60;;;;;;5035652;28;21686;-62
2023/04/14 10:14:05;;;;;;;10.80;6.78;;;409.80;2355.20;;;;;;5024477;28;20028;-62
2023/04/14 10:16:32;;;;;;;16.60;10.50;;;409.70;2355.20;;;;;;5015950;28;20044;-63
2023/04/14 10:18:58;;;;;;;13.30;9.88;;;409.70;2355.20;;;;;;5022412;28;20041;-62
2023/04/14 10:21:26;;;;;;;10.25;7.15;;;384.60;2329.60;;;;;;5022760;28;20036;-62
2023/04/14 10:23:55;;;;;;;13.88;10.98;;;409.90;2355.20;;;;;;5022128;28;20038;-63
2023/04/14 10:26:21;;;;;;;16.05;8.55;;;435.80;2355.20;;;;;;5037594;28;20052;-64
2023/04/14 10:28:51;;;;;;;10.07;7.72;;;436.00;2355.20;;;;;;5033349;28;20029;-63
2023/04/14 10:31:25;;;;;;;13.30;9.30;;;435.90;2355.20;;;;;;5035142;28;20471;-64
2023/04/14 10:33:51;;;;;;;22.65;16.00;;;460.90;2380.80;;;;;;5034990;28;20104;-62
2023/04/14 10:36:27;;;;;;;90.40;75.82;;;435.40;2355.20;;;;;;5036740;28;20037;-63
2023/04/14 10:39:01;;;;;;;18.15;14.55;;;435.90;2278.40;;;;;;5033674;28;20031;-67
2023/04/14 10:41:43;;;;;;;23.08;15.98;;;460.90;2252.80;;;;;;5034362;28;20045;-60
2023/04/14 10:44:28;;;;;;;14.02;6.85;;;461.10;2355.20;;;;;;5034648;28;20036;-62
2023/04/14 10:46:55;;;;;;;12.70;9.57;;;435.60;2073.60;;;;;;5018804;28;20057;-64
2023/04/14 10:49:29;;;;;;;24.35;21.95;;;460.80;2201.60;;;;;;5018314;28;20061;-61
2023/04/14 10:51:57;;;;;;;12.55;9.98;;;460.80;2227.20;;;;;;5016706;28;20097;-62
2023/04/14 10:54:23;;;;;;;23.83;21.88;;;436.10;1945.60;;;;;;5016310;28;20026;-62
2023/04/14 10:57:11;;;;;;;15.95;12.75;;;460.90;1971.20;;;;;;5027011;28;20044;-62
2023/04/14 10:59:45;;;;;;;26.90;21.60;;;461.10;1945.60;;;;;;5028964;28;20108;-62
2023/04/14 11:02:30;;;;;;;7.38;5.63;;;461.10;1894.40;;;;;;5031789;28;20026;-62
2023/04/14 11:04:58;;;;;;;18.80;14.50;;;461.30;1843.20;;;;;;5024042;28;20037;-62
2023/04/14 11:07:23;;;;;;;9.43;8.45;;;461.50;1792.00;;;;;;5026034;28;20032;-62
2023/04/14 11:09:49;;;;;;;16.02;14.48;;;486.60;1843.20;;;;;;5031191;28;20379;-62
2023/04/14 11:12:26;;;;;;;8.05;7.22;;;486.90;1817.60;;;;;;5032210;28;20040;-65
2023/04/14 11:15:00;;;;;;;17.23;15.43;;;487.10;1740.80;;;;;;5027852;28;20506;-62
2023/04/14 11:17:28;;;;;;;6.50;3.35;;;487.00;1715.20;;;;;;5026010;28;20096;-62
2023/04/14 11:20:00;;;;;;;3.35;2.10;;;487.20;1792.00;;;;;;5027729;28;20029;-62
2023/04/14 11:22:38;;;;;;;4.47;3.70;;;487.30;1894.40;;;;;;5026422;28;20025;-62
2023/04/14 11:25:05;;;;;;;4.63;3.05;;;487.00;1664.00;;;;;;5029468;28;20391;-62
2023/04/14 11:27:31;;;;;;;3.05;2.05;;;486.80;1689.60;;;;;;5023560;28;20087;-63
2023/04/14 11:29:59;;;;;;;10.23;8.63;;;486.40;1664.00;;;;;;5025377;28;20560;-62
2023/04/14 11:32:25;;;;;;;11.27;10.15;;;486.40;1689.60;;;;;;5037977;28;20457;-62
2023/04/14 11:34:51;;;;;;;11.43;3.28;;;486.40;1689.60;;;;;;5025314;28;20026;-63
2023/04/14 11:37:17;;;;;;;5.82;3.67;;;486.60;1612.80;;;;;;5037729;28;20083;-63
2023/04/14 11:39:43;;;;;;;6.78;4.20;;;486.70;1612.80;;;;;;5029309;28;20025;-62
2023/04/14 11:42:09;;;;;;;10.23;6.03;;;486.90;1587.20;;;;;;5032548;28;20032;-64
2023/04/14 11:44:35;;;;;;;4.60;3.00;;;486.60;1587.20;;;;;;5025378;28;20490;-62
2023/04/14 11:47:03;;;;;;;2.72;1.80;;;486.50;1612.80;;;;;;5032878;28;20032;-64
2023/04/14 11:49:35;;;;;;;3.75;2.00;;;461.70;1587.20;;;;;;5032715;28;20024;-64
2023/04/14 11:52:07;;;;;;;6.32;3.85;;;461.30;1587.20;;;;;;5025828;28;20104;-63
2023/04/14 11:54:37;;;;;;;10.23;7.03;;;460.90;1612.80;;;;;;5026585;28;20735;-63
2023/04/14 11:57:13;;;;;;;10.60;7.88;;;460.80;1561.60;;;;;;5045602;28;20151;-62
2023/04/14 11:59:46;;;;;;;7.97;5.80;;;436.10;1510.40;;;;;;5035568;28;20083;-63
2023/04/14 12:02:20;;;;;;;8.73;5.68;;;436.00;1484.80;;;;;;5028026;28;20048;-59
2023/04/14 12:04:48;;;;;;;14.77;9.60;;;436.00;1536.00;;;;;;5032550;28;20030;-62
2023/04/14 12:07:16;;;;;;;6.70;4.43;;;435.90;1536.00;;;;;;5036422;28;20025;-64
2023/04/14 12:09:47;;;;;;;23.92;13.60;;;435.80;1536.00;;;;;;5029524;28;20067;-63